Time;durP1;ratioP1;P1;durP2;ratioP2;P2;SDS_P1;SDS_P2;PMS_P1;PMS_P2;Temp;Humidity;BMP_temperature;BMP_pressure;BME280_temperature;BME280_humidity;BME280_pressure;Samples;Min_cycle;Max_cycle;Signal;HPM_P1;HPM_P2
2024/01/31 00:01:19;;;;;;;2.20;1.47;;;7.20;99.90;;;;;;5053141;28;20696;-81
2024/01/31 00:03:45;;;;;;;1.53;1.27;;;7.10;1.00;;;;;;5048253;28;20694;-80
2024/01/31 00:06:11;;;;;;;1.23;1.10;;;7.10;1.00;;;;;;5052063;28;20219;-81
2024/01/31 00:08:38;;;;;;;1.87;1.40;;;7.10;1.00;;;;;;5049215;28;22117;-81
2024/01/31 00:11:06;;;;;;;1.30;1.10;;;7.00;1.00;;;;;;5052391;28;20203;-81
2024/01/31 00:13:33;;;;;;;1.70;1.33;;;7.10;1.00;;;;;;5051621;28;20207;-82
2024/01/31 00:15:59;;;;;;;3.07;1.63;;;7.00;1.00;;;;;;5054239;28;20223;-81
2024/01/31 00:18:27;;;;;;;2.20;1.40;;;7.00;99.90;;;;;;5049418;28;20209;-81
2024/01/31 00:20:54;;;;;;;4.07;1.73;;;7.00;1.00;;;;;;5045270;28;21107;-81
2024/01/31 00:23:21;;;;;;;1.90;1.70;;;7.00;1.00;;;;;;5051285;28;20203;-81
2024/01/31 00:25:48;;;;;;;2.10;1.80;;;7.00;1.00;;;;;;5048874;28;20265;-82
2024/01/31 00:28:15;;;;;;;1.60;1.30;;;7.00;99.90;;;;;;5048094;28;20203;-81
2024/01/31 00:30:42;;;;;;;4.90;1.90;;;7.20;1.00;;;;;;5048971;28;20207;-82
2024/01/31 00:33:09;;;;;;;2.40;2.20;;;7.20;1.00;;;;;;5048970;28;20207;-81
2024/01/31 00:35:37;;;;;;;3.17;2.00;;;7.00;1.00;;;;;;5055396;28;20214;-81
2024/01/31 00:38:04;;;;;;;2.37;2.17;;;7.00;1.00;;;;;;5047508;28;20573;-81
2024/01/31 00:40:31;;;;;;;2.70;2.10;;;7.00;1.00;;;;;;5046653;28;20565;-81
2024/01/31 00:42:57;;;;;;;4.90;2.33;;;7.00;1.00;;;;;;5046412;28;20213;-82
2024/01/31 00:45:24;;;;;;;2.73;2.30;;;7.00;1.00;;;;;;5055219;28;20627;-80
2024/01/31 00:47:52;;;;;;;4.63;2.30;;;7.00;70.90;;;;;;5050919;28;20664;-82
2024/01/31 00:50:18;;;;;;;4.27;2.50;;;7.00;90.50;;;;;;5050879;28;20896;-81
2024/01/31 00:52:47;;;;;;;5.00;2.87;;;7.00;99.90;;;;;;5053247;28;20206;-82
2024/01/31 00:55:14;;;;;;;4.30;2.37;;;7.00;29.90;;;;;;5051320;28;20207;-81
2024/01/31 00:57:41;;;;;;;4.30;2.60;;;7.00;1.00;;;;;;5051368;28;20597;-81
2024/01/31 01:00:11;;;;;;;3.80;2.40;;;7.00;1.00;;;;;;5050173;28;20217;-81
2024/01/31 01:02:40;;;;;;;4.50;2.50;;;7.00;1.00;;;;;;5051560;28;20281;-81
2024/01/31 01:05:07;;;;;;;3.43;2.50;;;7.00;1.00;;;;;;5049580;28;20673;-81
2024/01/31 01:07:34;;;;;;;2.97;2.17;;;7.00;1.00;;;;;;5047873;28;20735;-81
2024/01/31 01:10:02;;;;;;;4.47;3.07;;;7.00;1.00;;;;;;5050247;28;20230;-81
2024/01/31 01:12:29;;;;;;;4.20;2.27;;;7.00;99.90;;;;;;5052051;28;20215;-81
2024/01/31 01:14:56;;;;;;;2.83;2.13;;;6.90;1.00;;;;;;5046843;28;20206;-82
2024/01/31 01:17:22;;;;;;;2.40;2.00;;;6.80;92.60;;;;;;5045747;28;20233;-81
2024/01/31 01:19:49;;;;;;;3.60;2.00;;;6.70;99.90;;;;;;5050450;28;20285;-81
2024/01/31 01:22:16;;;;;;;1.93;1.73;;;6.70;99.90;;;;;;5054095;28;20622;-81
2024/01/31 01:24:43;;;;;;;3.03;1.87;;;6.70;99.90;;;;;;5053282;28;20214;-81
2024/01/31 01:27:11;;;;;;;2.27;1.97;;;6.70;99.90;;;;;;5044615;28;20223;-81
2024/01/31 01:29:38;;;;;;;4.13;1.90;;;6.70;99.90;;;;;;5051674;28;20238;-81
2024/01/31 01:32:05;;;;;;;2.60;2.23;;;6.60;99.90;;;;;;5050532;28;20241;-80
2024/01/31 01:34:32;;;;;;;3.33;2.10;;;6.60;99.90;;;;;;5046525;28;20299;-81
2024/01/31 01:36:58;;;;;;;4.77;2.13;;;6.60;99.90;;;;;;5054522;28;20226;-81
2024/01/31 01:39:27;;;;;;;1.83;1.73;;;6.60;99.90;;;;;;5046928;28;20209;-81
2024/01/31 01:41:56;;;;;;;2.73;1.93;;;6.60;99.90;;;;;;5053931;28;20202;-82
2024/01/31 01:44:24;;;;;;;4.83;2.20;;;6.50;99.90;;;;;;5050188;28;20294;-81
2024/01/31 01:46:51;;;;;;;3.50;1.87;;;6.60;99.90;;;;;;5051594;28;20224;-81
2024/01/31 01:49:18;;;;;;;3.37;2.10;;;6.60;99.90;;;;;;5049408;28;20229;-81
2024/01/31 01:51:46;;;;;;;2.53;2.17;;;6.60;99.90;;;;;;5056901;28;20210;-81
2024/01/31 01:54:13;;;;;;;2.37;2.17;;;6.50;99.90;;;;;;5054172;28;20294;-81
2024/01/31 01:56:43;;;;;;;4.07;2.30;;;6.50;99.90;;;;;;5056297;28;20284;-81
2024/01/31 01:59:10;;;;;;;5.53;2.20;;;6.50;99.90;;;;;;5057890;28;20199;-80
2024/01/31 02:01:40;;;;;;;2.50;2.23;;;6.50;99.90;;;;;;5057047;28;20199;-81
2024/01/31 02:04:09;;;;;;;5.13;2.63;;;6.50;99.90;;;;;;5057555;28;20653;-81
2024/01/31 02:06:36;;;;;;;4.10;2.60;;;6.50;99.90;;;;;;5056326;28;20223;-81
2024/01/31 02:09:04;;;;;;;3.13;2.37;;;6.60;99.90;;;;;;5055758;28;20718;-81
2024/01/31 02:11:31;;;;;;;3.00;2.07;;;6.60;1.00;;;;;;5056018;28;20236;-81
2024/01/31 02:14:00;;;;;;;4.20;1.60;;;6.70;99.90;;;;;;5052749;28;20207;-82
2024/01/31 02:16:26;;;;;;;1.53;1.00;;;6.80;99.90;;;;;;5048967;28;20262;-81
2024/01/31 02:18:54;;;;;;;1.00;0.90;;;6.60;99.90;;;;;;5053364;28;20666;-81
2024/01/31 02:21:25;;;;;;;3.73;0.73;;;6.60;98.10;;;;;;5056264;28;20209;-82
2024/01/31 02:23:53;;;;;;;1.33;1.03;;;6.50;1.00;;;;;;5051168;28;20209;-80
2024/01/31 02:26:20;;;;;;;2.10;1.10;;;6.50;1.00;;;;;;5052814;28;20224;-82
2024/01/31 02:28:47;;;;;;;0.80;0.80;;;6.40;99.90;;;;;;5057476;28;20225;-81
2024/01/31 02:31:14;;;;;;;3.77;1.23;;;6.40;1.00;;;;;;5048074;28;20214;-82
2024/01/31 02:33:40;;;;;;;2.13;1.23;;;6.30;1.00;;;;;;5057670;28;20207;-83
2024/01/31 02:36:07;;;;;;;1.17;1.07;;;6.20;99.90;;;;;;5051157;28;20242;-81
2024/01/31 02:38:34;;;;;;;2.97;1.27;;;6.10;1.00;;;;;;5054878;28;20214;-82
2024/01/31 02:41:02;;;;;;;2.83;1.40;;;6.10;99.90;;;;;;5053923;28;20210;-80
2024/01/31 02:43:29;;;;;;;3.07;1.40;;;6.00;1.00;;;;;;5051502;28;20215;-81
2024/01/31 02:45:56;;;;;;;2.87;1.37;;;5.90;1.00;;;;;;5060604;28;20238;-81
2024/01/31 02:48:22;;;;;;;7.57;2.03;;;5.90;1.00;;;;;;5053023;28;20218;-81
2024/01/31 02:50:49;;;;;;;3.33;1.50;;;5.90;1.00;;;;;;5054859;28;20227;-82
2024/01/31 02:53:16;;;;;;;1.73;1.50;;;5.90;75.20;;;;;;5052568;28;21024;-81
2024/01/31 02:55:43;;;;;;;5.13;1.37;;;5.90;45.50;;;;;;5057046;28;20203;-80
2024/01/31 02:58:11;;;;;;;2.03;1.63;;;5.90;99.90;;;;;;5054405;28;20218;-81
2024/01/31 03:00:39;;;;;;;4.33;1.57;;;5.90;96.20;;;;;;5057669;28;20671;-80
2024/01/31 03:03:05;;;;;;;3.43;1.50;;;5.90;99.90;;;;;;5055584;28;20681;-81
2024/01/31 03:05:32;;;;;;;1.90;1.33;;;5.80;99.90;;;;;;5053390;28;20207;-81
2024/01/31 03:07:59;;;;;;;2.60;1.17;;;5.80;99.90;;;;;;5061504;28;20206;-81
2024/01/31 03:10:26;;;;;;;1.97;1.50;;;5.90;99.90;;;;;;5055842;28;20223;-80
2024/01/31 03:12:52;;;;;;;3.50;1.30;;;5.90;1.00;;;;;;5060928;28;20207;-81
2024/01/31 03:15:21;;;;;;;4.13;1.37;;;5.90;1.00;;;;;;5053976;28;20559;-81
2024/01/31 03:17:47;;;;;;;1.63;0.93;;;5.90;1.00;;;;;;5042569;28;20346;-81
2024/01/31 03:20:14;;;;;;;4.07;1.03;;;5.90;1.00;;;;;;5051954;28;20229;-81
2024/01/31 03:22:41;;;;;;;4.87;1.03;;;6.00;99.90;;;;;;5054556;28;20219;-81
2024/01/31 03:25:08;;;;;;;1.97;1.20;;;5.90;99.90;;;;;;5053500;28;20214;-81
2024/01/31 03:27:35;;;;;;;3.30;1.40;;;5.90;99.90;;;;;;5049137;28;20234;-81
2024/01/31 03:30:02;;;;;;;2.73;0.90;;;5.90;99.90;;;;;;5054749;28;20233;-81
2024/01/31 03:32:31;;;;;;;3.53;1.00;;;5.90;1.00;;;;;;5049986;28;20214;-81
2024/01/31 03:34:59;;;;;;;2.83;1.27;;;5.80;2.00;;;;;;5057546;28;20202;-81
2024/01/31 03:37:26;;;;;;;2.30;1.20;;;5.80;99.90;;;;;;5053756;28;20227;-81
2024/01/31 03:39:52;;;;;;;1.77;1.00;;;5.80;99.90;;;;;;5057220;28;20198;-81
2024/01/31 03:42:19;;;;;;;3.23;1.20;;;5.80;1.00;;;;;;5058027;28;20211;-81
2024/01/31 03:44:46;;;;;;;5.07;2.43;;;5.80;99.90;;;;;;5055388;28;20211;-81
2024/01/31 03:47:13;;;;;;;5.10;1.60;;;5.80;99.90;;;;;;5050940;28;20226;-82
2024/01/31 03:49:41;;;;;;;2.87;1.00;;;6.10;99.90;;;;;;5057346;28;20780;-81
2024/01/31 03:52:08;;;;;;;1.73;1.07;;;5.80;1.00;;;;;;5054713;28;20202;-81
2024/01/31 03:54:34;;;;;;;0.70;0.70;;;5.70;1.00;;;;;;5052771;28;20209;-81
2024/01/31 03:57:01;;;;;;;2.47;0.87;;;5.70;99.90;;;;;;5048260;28;20228;-81
2024/01/31 03:59:28;;;;;;;1.40;0.70;;;5.80;1.00;;;;;;5053895;28;20211;-81
2024/01/31 04:01:55;;;;;;;0.97;0.30;;;5.80;1.00;;;;;;5052766;28;20206;-82
2024/01/31 04:04:22;;;;;;;0.90;0.40;;;5.80;1.00;;;;;;5059143;28;20299;-81
2024/01/31 04:06:50;;;;;;;0.60;0.60;;;5.80;1.00;;;;;;5052194;28;21230;-81
2024/01/31 04:09:16;;;;;;;2.83;1.33;;;5.80;99.90;;;;;;5056849;28;20207;-82
2024/01/31 04:11:43;;;;;;;1.87;0.60;;;5.80;99.90;;;;;;5059744;28;20274;-81
2024/01/31 04:14:10;;;;;;;3.77;0.50;;;5.80;1.00;;;;;;5057088;28;20758;-81
2024/01/31 04:16:37;;;;;;;0.83;0.37;;;5.80;1.00;;;;;;5055297;28;20238;-81
2024/01/31 04:19:04;;;;;;;0.30;0.30;;;5.80;1.00;;;;;;5049156;28;20207;-81
2024/01/31 04:21:31;;;;;;;0.87;0.23;;;5.80;1.00;;;;;;5051883;28;20206;-80
2024/01/31 04:23:59;;;;;;;0.33;0.20;;;5.80;1.00;;;;;;5048399;28;20716;-80
2024/01/31 04:26:26;;;;;;;0.20;0.20;;;5.70;1.00;;;;;;5053313;28;20234;-81
2024/01/31 04:28:53;;;;;;;0.40;0.30;;;5.70;1.00;;;;;;5051178;28;20213;-79
2024/01/31 04:31:20;;;;;;;0.20;0.20;;;5.70;1.00;;;;;;5048808;28;20226;-77
2024/01/31 04:33:46;;;;;;;0.40;0.40;;;5.70;1.00;;;;;;5051356;28;20257;-82
2024/01/31 04:36:13;;;;;;;0.33;0.20;;;5.80;1.00;;;;;;5052077;28;20226;-80
2024/01/31 04:38:41;;;;;;;0.07;0.07;;;5.70;1.00;;;;;;5050950;28;20211;-80
2024/01/31 04:41:09;;;;;;;0.20;0.20;;;5.70;99.90;;;;;;5053829;28;20214;-80
2024/01/31 04:43:35;;;;;;;0.20;0.20;;;5.90;99.90;;;;;;5049838;28;20209;-80
2024/01/31 04:46:02;;;;;;;0.37;0.10;;;5.70;99.90;;;;;;5044772;28;20227;-80
2024/01/31 04:48:29;;;;;;;0.17;0.10;;;5.70;99.90;;;;;;5049146;28;20211;-81
2024/01/31 04:50:56;;;;;;;0.77;0.30;;;5.70;99.90;;;;;;5048452;28;20219;-80
2024/01/31 04:53:23;;;;;;;0.40;0.20;;;5.70;99.90;;;;;;5047957;28;20211;-81
2024/01/31 04:55:49;;;;;;;0.30;0.30;;;5.70;99.90;;;;;;5050529;28;20759;-81
2024/01/31 04:58:17;;;;;;;0.93;0.30;;;5.90;99.90;;;;;;5047135;28;20209;-81
2024/01/31 05:00:44;;;;;;;0.87;0.30;;;5.60;99.90;;;;;;5048471;28;20199;-81
2024/01/31 05:03:11;;;;;;;0.20;0.10;;;5.60;99.90;;;;;;5050848;28;20667;-80
2024/01/31 05:05:38;;;;;;;1.33;0.40;;;5.50;99.90;;;;;;5054930;28;20971;-81
2024/01/31 05:08:06;;;;;;;0.60;0.30;;;5.50;99.90;;;;;;5051977;28;20306;-80
2024/01/31 05:10:34;;;;;;;0.20;0.20;;;5.50;99.90;;;;;;5050987;28;20568;-80
2024/01/31 05:13:01;;;;;;;0.20;0.20;;;5.60;99.90;;;;;;5044398;28;20230;-80
2024/01/31 05:15:30;;;;;;;1.80;0.30;;;5.60;99.90;;;;;;5051764;28;20207;-80
2024/01/31 05:17:57;;;;;;;0.10;0.10;;;5.60;99.90;;;;;;5041866;28;20622;-80
2024/01/31 05:20:24;;;;;;;1.13;0.13;;;5.50;1.00;;;;;;5044473;28;20203;-80
2024/01/31 05:22:52;;;;;;;1.13;0.30;;;5.50;1.00;;;;;;5043627;28;20655;-81
2024/01/31 05:25:19;;;;;;;0.53;0.40;;;5.50;1.00;;;;;;5046507;28;20583;-80
2024/01/31 05:27:46;;;;;;;0.43;0.37;;;5.50;1.00;;;;;;5045584;28;20594;-80
2024/01/31 05:30:13;;;;;;;2.20;0.40;;;5.40;1.00;;;;;;5050902;28;20258;-81
2024/01/31 05:32:42;;;;;;;1.47;0.30;;;5.40;1.00;;;;;;5052527;28;20654;-80
2024/01/31 05:35:09;;;;;;;1.83;0.60;;;5.40;99.90;;;;;;5050912;28;20653;-80
2024/01/31 05:37:36;;;;;;;1.13;0.60;;;5.40;99.90;;;;;;5057073;28;20229;-80
2024/01/31 05:40:04;;;;;;;0.90;0.40;;;5.30;99.90;;;;;;5055581;28;20245;-81
2024/01/31 05:42:31;;;;;;;0.70;0.60;;;5.30;1.00;;;;;;5054298;28;20214;-81
2024/01/31 05:44:58;;;;;;;2.00;0.77;;;5.30;1.00;;;;;;5054860;28;20203;-80
2024/01/31 05:47:25;;;;;;;1.30;0.90;;;5.20;1.00;;;;;;5054414;28;20237;-81
2024/01/31 05:49:53;;;;;;;1.73;0.90;;;5.20;99.90;;;;;;5053019;28;20229;-80
2024/01/31 05:52:20;;;;;;;1.17;0.80;;;5.20;1.00;;;;;;5051430;28;20207;-80
2024/01/31 05:54:46;;;;;;;2.10;0.90;;;5.10;99.90;;;;;;5054536;28;20588;-81
2024/01/31 05:57:13;;;;;;;2.17;0.90;;;5.20;1.00;;;;;;5054814;28;20223;-81
2024/01/31 05:59:41;;;;;;;4.57;1.00;;;5.10;99.90;;;;;;5054816;28;20670;-81
2024/01/31 06:02:08;;;;;;;2.20;0.80;;;5.00;1.00;;;;;;5057235;28;20207;-80
2024/01/31 06:04:35;;;;;;;2.30;1.30;;;5.10;1.00;;;;;;5051668;28;20584;-80
2024/01/31 06:07:03;;;;;;;2.70;1.33;;;5.00;29.20;;;;;;5053986;28;20235;-81
2024/01/31 06:09:30;;;;;;;3.00;1.10;;;5.10;1.00;;;;;;5059228;28;20225;-81
2024/01/31 06:12:00;;;;;;;1.50;0.90;;;5.00;99.90;;;;;;5052528;28;20230;-81
2024/01/31 06:14:27;;;;;;;0.97;0.80;;;5.00;1.00;;;;;;5049277;28;20211;-80
2024/01/31 06:16:54;;;;;;;2.03;0.87;;;5.00;1.00;;;;;;5048312;28;20223;-80
2024/01/31 06:19:21;;;;;;;1.67;0.80;;;5.00;1.00;;;;;;5044431;28;20569;-80
2024/01/31 06:21:47;;;;;;;1.73;0.70;;;5.00;1.00;;;;;;5048999;28;20210;-80
2024/01/31 06:24:15;;;;;;;1.73;0.63;;;5.00;1.00;;;;;;5045332;28;20207;-81
2024/01/31 06:26:42;;;;;;;1.03;0.70;;;5.00;1.00;;;;;;5047325;28;20223;-80
2024/01/31 06:29:17;;;;;;;1.30;0.87;;;5.10;99.90;;;;;;5048638;28;20212;-81
2024/01/31 06:31:46;;;;;;;1.57;0.80;;;5.00;99.90;;;;;;5047260;28;20221;-80
2024/01/31 06:34:13;;;;;;;1.93;1.00;;;5.00;99.90;;;;;;5049611;28;20619;-80
2024/01/31 06:36:40;;;;;;;1.70;0.90;;;5.00;99.90;;;;;;5054289;28;20251;-80
2024/01/31 06:39:07;;;;;;;2.07;1.00;;;5.00;99.90;;;;;;5052099;28;20202;-80
2024/01/31 06:41:36;;;;;;;2.73;1.00;;;5.00;1.00;;;;;;5051795;28;20196;-80
2024/01/31 06:44:03;;;;;;;2.17;1.17;;;5.00;1.00;;;;;;5057895;28;20194;-81
2024/01/31 06:46:30;;;;;;;1.90;0.80;;;5.00;1.00;;;;;;5052116;28;20224;-80
2024/01/31 06:48:58;;;;;;;1.43;0.70;;;5.00;1.00;;;;;;5054551;28;20201;-81
2024/01/31 06:51:25;;;;;;;1.10;1.00;;;5.00;99.90;;;;;;5052266;28;20223;-80
2024/01/31 06:53:51;;;;;;;0.93;0.90;;;5.00;1.00;;;;;;5054059;28;20616;-81
2024/01/31 06:56:19;;;;;;;1.00;0.90;;;5.10;99.90;;;;;;5052426;28;20227;-80
2024/01/31 06:58:48;;;;;;;2.00;1.20;;;5.10;99.90;;;;;;5052655;28;20565;-81
2024/01/31 07:01:16;;;;;;;1.70;1.00;;;5.10;99.90;;;;;;5051429;28;20289;-80
2024/01/31 07:03:43;;;;;;;1.30;1.00;;;5.10;1.00;;;;;;5051974;28;20692;-81
2024/01/31 07:06:11;;;;;;;2.30;1.03;;;5.10;1.00;;;;;;5065276;28;20218;-80
2024/01/31 07:08:39;;;;;;;1.97;1.00;;;5.00;99.90;;;;;;5052745;28;20221;-81
2024/01/31 07:11:08;;;;;;;1.03;1.00;;;5.00;1.00;;;;;;5054621;28;20306;-80
2024/01/31 07:13:34;;;;;;;1.20;1.00;;;5.10;1.00;;;;;;5047647;28;20199;-80
2024/01/31 07:16:04;;;;;;;3.07;1.20;;;5.10;99.90;;;;;;5051120;28;20219;-81
2024/01/31 07:18:31;;;;;;;1.53;1.00;;;5.10;1.00;;;;;;5041682;28;20642;-80
2024/01/31 07:20:58;;;;;;;0.67;0.60;;;5.10;1.00;;;;;;5046237;28;20538;-81
2024/01/31 07:23:24;;;;;;;1.40;0.83;;;5.20;99.90;;;;;;5041638;28;20223;-81
2024/01/31 07:25:51;;;;;;;1.40;0.80;;;5.20;99.90;;;;;;5045632;28;20214;-81
2024/01/31 07:28:19;;;;;;;0.87;0.57;;;5.60;99.90;;;;;;5043682;28;20202;-80
2024/01/31 07:30:46;;;;;;;2.47;0.83;;;5.20;99.90;;;;;;5046914;28;20238;-79
2024/01/31 07:33:14;;;;;;;3.27;1.10;;;5.20;99.90;;;;;;5043975;28;20214;-81
2024/01/31 07:35:42;;;;;;;2.73;0.53;;;5.30;99.90;;;;;;5050417;28;20209;-81
2024/01/31 07:38:08;;;;;;;3.50;0.70;;;5.20;4.20;;;;;;5049265;28;20245;-80
2024/01/31 07:40:35;;;;;;;1.60;0.60;;;5.10;1.00;;;;;;5047029;28;20244;-79
2024/01/31 07:43:03;;;;;;;3.57;1.67;;;5.10;1.00;;;;;;5047641;28;20203;-80
2024/01/31 07:45:29;;;;;;;2.67;1.10;;;5.10;1.00;;;;;;5048741;28;20203;-79
2024/01/31 07:47:56;;;;;;;3.10;0.83;;;5.20;1.00;;;;;;5051297;28;20199;-80
2024/01/31 07:50:24;;;;;;;1.17;0.60;;;5.30;1.00;;;;;;5053342;28;20354;-80
2024/01/31 07:52:51;;;;;;;2.63;1.00;;;5.20;1.00;;;;;;5058972;28;20225;-80
2024/01/31 07:55:18;;;;;;;1.73;0.80;;;5.20;1.00;;;;;;5055212;28;20675;-80
2024/01/31 07:57:45;;;;;;;7.13;2.47;;;5.30;1.00;;;;;;5051216;28;20229;-80
2024/01/31 08:00:13;;;;;;;2.57;1.00;;;5.30;1.00;;;;;;5053197;28;20205;-79
2024/01/31 08:02:40;;;;;;;1.33;0.80;;;5.30;1.00;;;;;;5051133;28;20207;-79
2024/01/31 08:05:07;;;;;;;2.90;0.77;;;5.30;99.90;;;;;;5052930;28;20206;-79
2024/01/31 08:07:35;;;;;;;2.30;1.27;;;5.40;1.00;;;;;;5057193;28;20230;-80
2024/01/31 08:10:02;;;;;;;2.23;1.10;;;5.40;99.90;;;;;;5053116;28;20210;-80
2024/01/31 08:12:29;;;;;;;3.00;1.33;;;5.40;99.90;;;;;;5051323;28;20293;-79
2024/01/31 08:14:56;;;;;;;5.20;1.47;;;5.40;99.90;;;;;;5046703;28;20209;-80
2024/01/31 08:17:22;;;;;;;3.33;1.60;;;5.40;99.90;;;;;;5040990;28;20727;-81
2024/01/31 08:19:49;;;;;;;3.00;1.67;;;5.40;99.90;;;;;;5038239;28;20794;-81
2024/01/31 08:22:16;;;;;;;1.53;1.40;;;5.40;1.00;;;;;;5042133;28;20214;-80
2024/01/31 08:24:44;;;;;;;3.33;1.50;;;5.70;1.00;;;;;;5040933;28;20207;-81
2024/01/31 08:27:11;;;;;;;2.57;1.67;;;5.40;99.90;;;;;;5043710;28;20219;-81
2024/01/31 08:29:38;;;;;;;2.53;1.70;;;5.40;1.00;;;;;;5045427;28;20199;-80
2024/01/31 08:32:05;;;;;;;1.50;1.40;;;5.50;99.90;;;;;;5041240;28;20233;-81
2024/01/31 08:34:32;;;;;;;4.00;1.80;;;5.50;1.00;;;;;;5042735;28;20215;-80
2024/01/31 08:36:59;;;;;;;4.00;1.70;;;5.50;1.00;;;;;;5047053;28;20311;-81
2024/01/31 08:39:26;;;;;;;1.50;1.40;;;5.40;1.00;;;;;;5045747;28;20203;-80
2024/01/31 08:41:54;;;;;;;3.87;1.70;;;5.40;1.00;;;;;;5046133;28;20238;-80
2024/01/31 08:44:21;;;;;;;2.27;1.47;;;5.50;1.00;;;;;;5047328;28;20570;-81
2024/01/31 08:46:47;;;;;;;1.40;1.17;;;5.50;1.00;;;;;;5051971;28;20567;-82
2024/01/31 08:49:14;;;;;;;1.70;1.23;;;5.50;1.00;;;;;;5046748;28;20684;-81
2024/01/31 08:51:41;;;;;;;4.40;1.57;;;5.50;99.90;;;;;;5053681;28;20238;-79
2024/01/31 08:54:08;;;;;;;1.80;1.60;;;5.60;99.90;;;;;;5051784;28;20195;-80
2024/01/31 08:56:35;;;;;;;1.63;1.40;;;5.60;99.90;;;;;;5049332;28;20218;-81
2024/01/31 08:59:03;;;;;;;2.13;1.33;;;5.60;99.90;;;;;;5054691;28;20199;-80
2024/01/31 09:01:30;;;;;;;1.93;1.40;;;5.60;99.90;;;;;;5049560;28;20205;-80
2024/01/31 09:03:57;;;;;;;3.47;2.10;;;5.50;99.90;;;;;;5055728;28;20198;-81
2024/01/31 09:06:24;;;;;;;2.60;1.70;;;5.50;99.90;;;;;;5052658;28;20229;-79
2024/01/31 09:08:50;;;;;;;1.80;1.20;;;5.60;99.90;;;;;;5050753;28;20301;-81
2024/01/31 09:11:18;;;;;;;2.67;1.80;;;5.60;99.90;;;;;;5052578;28;20670;-81
2024/01/31 09:13:44;;;;;;;1.60;1.50;;;5.70;99.90;;;;;;5045146;28;20755;-81
2024/01/31 09:16:13;;;;;;;1.67;1.53;;;5.60;99.90;;;;;;5041475;28;20219;-81
2024/01/31 09:18:40;;;;;;;1.70;1.60;;;5.60;99.90;;;;;;5036170;28;20210;-80
2024/01/31 09:21:07;;;;;;;2.40;1.50;;;5.60;99.90;;;;;;5049464;28;20294;-81
2024/01/31 09:23:34;;;;;;;1.70;1.60;;;5.60;99.90;;;;;;5037963;28;20222;-80
2024/01/31 09:26:02;;;;;;;2.07;1.50;;;5.70;99.90;;;;;;5045115;28;20220;-80
2024/01/31 09:28:28;;;;;;;2.77;1.47;;;5.60;99.90;;;;;;5040499;28;20238;-80
2024/01/31 09:30:55;;;;;;;1.80;1.40;;;5.60;99.90;;;;;;5037999;28;20201;-80
2024/01/31 09:33:23;;;;;;;2.27;1.50;;;5.70;99.90;;;;;;5043053;28;20223;-80
2024/01/31 09:35:51;;;;;;;2.27;1.27;;;5.70;99.90;;;;;;5041403;28;20265;-80
2024/01/31 09:38:18;;;;;;;3.47;1.47;;;5.70;99.90;;;;;;5043674;28;20684;-82
2024/01/31 09:40:45;;;;;;;2.63;1.43;;;5.70;99.90;;;;;;5043281;28;20210;-82
2024/01/31 09:43:12;;;;;;;2.20;1.80;;;5.70;99.90;;;;;;5042612;28;20195;-81
2024/01/31 09:45:41;;;;;;;1.43;1.20;;;5.70;99.90;;;;;;5045838;28;20574;-82
2024/01/31 09:48:11;;;;;;;2.00;1.53;;;5.70;99.90;;;;;;5048296;28;20204;-81
2024/01/31 09:50:39;;;;;;;2.10;1.30;;;5.70;99.90;;;;;;5043912;28;20214;-81
2024/01/31 09:53:06;;;;;;;1.50;1.30;;;5.70;99.90;;;;;;5046247;28;20219;-81
2024/01/31 09:55:35;;;;;;;1.00;0.93;;;5.70;99.90;;;;;;5044108;28;20218;-82
2024/01/31 09:58:02;;;;;;;2.03;0.93;;;5.70;99.90;;;;;;5048198;28;20294;-81
2024/01/31 10:00:29;;;;;;;3.33;1.43;;;5.80;99.90;;;;;;5048198;28;20286;-81
2024/01/31 10:02:56;;;;;;;1.77;1.40;;;5.80;99.90;;;;;;5045782;28;20198;-80
2024/01/31 10:05:23;;;;;;;1.60;1.37;;;5.70;99.90;;;;;;5049388;28;20195;-81
2024/01/31 10:07:51;;;;;;;1.57;1.10;;;5.80;99.90;;;;;;5051228;28;20245;-81
2024/01/31 10:10:18;;;;;;;2.57;1.20;;;5.70;99.90;;;;;;5053165;28;20203;-81
2024/01/31 10:12:45;;;;;;;1.70;1.00;;;5.80;99.90;;;;;;5049457;28;20670;-81
2024/01/31 10:15:11;;;;;;;1.30;1.00;;;5.80;99.90;;;;;;5034888;28;20200;-82
2024/01/31 10:17:38;;;;;;;1.50;1.33;;;5.80;99.90;;;;;;5046008;28;20231;-81
2024/01/31 10:20:10;;;;;;;2.43;1.83;;;5.80;99.90;;;;;;5045893;28;20196;-81
2024/01/31 10:22:37;;;;;;;2.97;1.97;;;5.80;99.90;;;;;;5039452;28;20318;-81
2024/01/31 10:25:07;;;;;;;4.87;2.23;;;5.90;99.90;;;;;;5048779;28;20196;-81
2024/01/31 10:27:35;;;;;;;2.50;1.40;;;5.90;1.00;;;;;;5044242;28;20310;-81
2024/01/31 10:30:05;;;;;;;2.93;1.63;;;6.10;99.90;;;;;;5053665;28;20757;-81
2024/01/31 10:32:34;;;;;;;1.37;1.00;;;6.00;99.90;;;;;;5055288;28;20223;-82
2024/01/31 10:35:02;;;;;;;1.57;1.33;;;6.10;99.90;;;;;;5042880;28;20199;-81
2024/01/31 10:37:30;;;;;;;1.43;0.97;;;6.10;99.90;;;;;;5042328;28;20240;-80
2024/01/31 10:39:59;;;;;;;3.00;1.00;;;6.10;99.90;;;;;;5043829;28;20202;-81
2024/01/31 10:42:27;;;;;;;2.27;1.23;;;6.10;99.90;;;;;;5046404;28;20650;-82
2024/01/31 10:44:55;;;;;;;1.20;1.10;;;6.10;1.00;;;;;;5047120;28;21207;-81
2024/01/31 10:47:22;;;;;;;1.17;1.07;;;6.10;99.90;;;;;;5045065;28;20231;-82
2024/01/31 10:49:48;;;;;;;1.30;1.13;;;6.10;1.00;;;;;;5048400;28;20235;-82
2024/01/31 10:52:19;;;;;;;1.73;1.37;;;6.20;1.00;;;;;;5050785;28;20215;-82
2024/01/31 10:54:51;;;;;;;3.07;1.20;;;6.40;99.90;;;;;;5055089;28;20566;-82
2024/01/31 10:57:18;;;;;;;2.13;1.43;;;6.20;99.90;;;;;;5051697;28;20246;-81
2024/01/31 10:59:49;;;;;;;2.17;1.27;;;6.10;1.00;;;;;;5052304;28;20204;-81
2024/01/31 11:02:17;;;;;;;1.07;0.97;;;6.10;1.00;;;;;;5052161;28;20580;-78
2024/01/31 11:04:44;;;;;;;2.43;1.27;;;6.10;1.00;;;;;;5053256;28;20256;-81
2024/01/31 11:07:17;;;;;;;2.50;1.20;;;6.10;1.00;;;;;;5054286;28;20229;-81
2024/01/31 11:09:43;;;;;;;2.00;1.60;;;6.20;1.00;;;;;;5054137;28;20588;-82
2024/01/31 11:12:14;;;;;;;1.30;1.20;;;6.10;1.00;;;;;;5054722;28;20217;-81
2024/01/31 11:14:42;;;;;;;1.43;1.03;;;6.10;1.00;;;;;;5052480;28;20207;-81
2024/01/31 11:17:12;;;;;;;3.70;1.60;;;6.10;1.00;;;;;;5054110;28;20269;-81
2024/01/31 11:19:42;;;;;;;1.83;1.60;;;6.10;1.00;;;;;;5038670;28;20212;-81
2024/01/31 11:22:09;;;;;;;3.03;1.30;;;6.20;1.00;;;;;;5040432;28;20205;-82
2024/01/31 11:24:40;;;;;;;3.43;1.60;;;6.10;1.00;;;;;;5047221;28;20294;-82
2024/01/31 11:27:07;;;;;;;1.87;1.70;;;6.20;1.00;;;;;;5040061;28;20474;-81
2024/01/31 11:29:33;;;;;;;4.73;1.67;;;6.20;1.00;;;;;;5041952;28;20234;-81
2024/01/31 11:32:01;;;;;;;3.57;1.90;;;6.20;1.00;;;;;;5051398;28;20222;-81
2024/01/31 11:34:29;;;;;;;3.57;2.00;;;6.20;1.00;;;;;;5040759;28;20211;-82
2024/01/31 11:36:56;;;;;;;3.13;2.20;;;6.20;1.00;;;;;;5046654;28;20233;-82
2024/01/31 11:39:23;;;;;;;2.80;1.80;;;6.30;1.00;;;;;;5056187;28;20508;-81
2024/01/31 11:41:50;;;;;;;2.57;2.20;;;6.20;99.90;;;;;;5049822;28;20215;-81
2024/01/31 11:44:17;;;;;;;3.17;1.77;;;6.30;99.90;;;;;;5054710;28;20270;-81
2024/01/31 11:46:44;;;;;;;3.83;2.27;;;6.20;99.90;;;;;;5048641;28;20310;-82
2024/01/31 11:49:12;;;;;;;3.87;2.00;;;6.20;99.90;;;;;;5045923;28;20205;-83
2024/01/31 11:51:40;;;;;;;2.10;1.90;;;6.20;99.90;;;;;;5050846;28;20581;-81
2024/01/31 11:54:07;;;;;;;3.27;2.07;;;6.40;1.00;;;;;;5046539;28;20305;-82
2024/01/31 11:56:34;;;;;;;2.13;1.93;;;6.40;1.00;;;;;;5049574;28;20805;-82
2024/01/31 11:59:01;;;;;;;4.07;2.50;;;6.50;99.90;;;;;;5050342;28;20552;-81
2024/01/31 12:01:29;;;;;;;3.10;2.90;;;6.40;1.00;;;;;;5050050;28;20203;-83
2024/01/31 12:03:56;;;;;;;3.07;2.40;;;6.60;1.00;;;;;;5050504;28;20195;-81
2024/01/31 12:06:22;;;;;;;4.13;2.87;;;6.60;1.00;;;;;;5052933;28;20231;-81
2024/01/31 12:08:51;;;;;;;2.93;2.60;;;6.60;1.00;;;;;;5053276;28;20215;-81
2024/01/31 12:11:18;;;;;;;3.93;2.83;;;6.50;1.00;;;;;;5052507;28;20203;-81
2024/01/31 12:13:45;;;;;;;3.93;2.80;;;6.50;1.00;;;;;;5049386;28;20306;-81
2024/01/31 12:16:12;;;;;;;3.27;2.80;;;6.40;1.00;;;;;;5051196;28;20268;-81
2024/01/31 12:18:40;;;;;;;2.80;2.40;;;6.70;1.00;;;;;;5049520;28;20214;-81
2024/01/31 12:21:10;;;;;;;3.30;2.33;;;6.40;1.00;;;;;;5051418;28;20195;-81
2024/01/31 12:23:37;;;;;;;3.50;2.57;;;6.40;1.00;;;;;;5052796;28;20195;-81
2024/01/31 12:26:05;;;;;;;2.50;2.30;;;6.40;1.00;;;;;;5047509;28;20237;-82
2024/01/31 12:28:32;;;;;;;5.73;3.00;;;6.40;1.00;;;;;;5046934;28;20289;-81
2024/01/31 12:30:59;;;;;;;5.13;3.07;;;6.40;1.00;;;;;;5045773;28;20221;-82
2024/01/31 12:33:26;;;;;;;3.33;2.90;;;6.40;1.00;;;;;;5039337;28;20270;-81
2024/01/31 12:35:53;;;;;;;6.07;3.40;;;6.40;1.00;;;;;;5042968;28;20223;-82
2024/01/31 12:38:20;;;;;;;4.53;3.67;;;6.40;1.00;;;;;;5043741;28;20712;-80
2024/01/31 12:40:46;;;;;;;4.17;3.13;;;6.40;1.00;;;;;;5042718;28;20210;-81
2024/01/31 12:43:15;;;;;;;5.93;3.30;;;6.40;1.00;;;;;;5046136;28;20203;-79
2024/01/31 12:45:42;;;;;;;7.00;4.03;;;6.60;1.00;;;;;;5046896;28;20317;-81
2024/01/31 12:48:09;;;;;;;5.07;3.43;;;6.60;1.00;;;;;;5042217;28;20199;-81
2024/01/31 12:50:36;;;;;;;4.73;3.50;;;6.60;1.00;;;;;;5044048;28;20223;-82
2024/01/31 12:53:03;;;;;;;7.60;3.80;;;6.70;1.00;;;;;;5049078;28;20226;-82
2024/01/31 12:55:29;;;;;;;5.13;3.37;;;6.80;1.00;;;;;;5045044;28;20203;-82
2024/01/31 12:57:56;;;;;;;4.37;3.03;;;6.70;1.00;;;;;;5050908;28;20222;-82
2024/01/31 13:00:24;;;;;;;4.23;3.33;;;6.70;1.00;;;;;;5045202;28;20199;-81
2024/01/31 13:02:51;;;;;;;3.93;2.87;;;6.90;1.00;;;;;;5053153;28;20294;-82